.
WxDataArchive / Data Records for 2010-07-16
2010-07-15 July 2010 2010-07-17

Data Records for Friday, 16 July 2010

Time	Temp	Chill	HIndex	Humid	Dewpt	 Wind 	HiWind	WindDir	Rain 	Barom 
-----	----	-----	------	-----	-----	------	------	-------	-----	----- 
00:00	75.6	75.6	76.0	84	70.4	0	2	270	0.00	29.928 
00:05	75.6	75.6	76.1	83	70.1	0	2	270	0.00	29.928 
00:10	75.6	75.6	76.1	83	70.1	0	2	270	0.00	29.928 
00:15	75.6	75.6	76.1	83	70.1	0	1	270	0.00	29.927 
00:20	75.6	75.6	76.1	83	70.1	0	1	270	0.00	29.927 
00:25	75.8	75.8	76.4	83	70.3	0	2	270	0.00	29.927 
00:30	75.8	75.8	76.4	83	70.3	0	1	270	0.00	29.928 
00:35	75.8	75.8	76.4	83	70.3	0	1	270	0.00	29.928 
00:40	75.8	75.8	76.4	83	70.3	0	2	270	0.00	29.928 
00:45	75.8	75.8	76.4	83	70.3	0	2	270	0.00	29.933 
00:50	76.0	76.0	76.7	83	70.4	0	2	270	0.00	29.933 
00:55	76.0	76.0	76.7	83	70.4	0	2	270	0.00	29.933 
01:00	76.0	76.0	76.7	83	70.4	0	1	270	0.00	29.930 
01:05	76.0	76.0	76.7	83	70.4	0	1	270	0.00	29.930 
01:10	76.0	76.0	76.7	83	70.4	0	1	270	0.00	29.930 
01:15	76.0	76.0	76.7	83	70.4	0	2	270	0.00	29.925 
01:20	76.0	76.0	76.7	83	70.4	0	1	270	0.00	29.925 
01:25	76.0	76.0	76.7	83	70.4	0	1	270	0.00	29.925 
01:30	76.0	76.0	76.7	83	70.4	0	1	270	0.00	29.927 
01:35	75.8	75.8	76.4	83	70.3	0	1	270	0.00	29.927 
01:40	75.8	75.8	76.4	83	70.3	0	1	270	0.00	29.927 
01:45	75.6	75.6	76.0	84	70.4	0	1	270	0.00	29.921 
01:50	75.4	75.4	75.7	84	70.2	0	1	270	0.00	29.921 
01:55	75.3	75.3	75.5	84	70.1	0	0	---	0.00	29.921 
02:00	75.1	75.1	75.2	84	69.9	0	0	---	0.00	29.918 
02:05	74.9	74.9	74.9	85	70.1	0	0	---	0.00	29.918 
02:10	74.7	74.7	74.7	85	69.9	0	0	---	0.00	29.918 
02:15	74.6	74.6	74.6	85	69.8	0	0	---	0.00	29.922 
02:20	74.6	74.6	74.6	86	70.1	0	0	---	0.00	29.922 
02:25	74.4	74.4	74.4	86	69.9	0	0	---	0.00	29.922 
02:30	74.4	74.4	74.4	87	70.3	0	1	270	0.00	29.922 
02:35	74.4	74.4	74.4	87	70.3	0	1	270	0.00	29.922 
02:40	74.2	74.2	74.2	87	70.1	0	1	270	0.00	29.922 
02:45	74.2	74.2	74.2	87	70.1	0	1	270	0.00	29.922 
02:50	74.0	74.0	74.0	88	70.2	0	1	270	0.00	29.922 
02:55	74.0	74.0	74.0	88	70.2	0	1	270	0.00	29.922 
03:00	74.0	74.0	74.0	88	70.2	0	1	270	0.00	29.919 
03:05	73.9	73.9	73.9	88	70.1	0	1	270	0.00	29.919 
03:10	73.9	73.9	73.9	88	70.1	0	1	270	0.00	29.919 
03:15	73.9	73.9	73.9	88	70.1	0	0	---	0.00	29.930 
03:20	73.7	73.7	73.7	88	69.9	0	0	---	0.00	29.930 
03:25	73.7	73.7	73.7	89	70.2	0	1	270	0.00	29.930 
03:30	73.5	73.5	73.5	89	70.0	0	0	---	0.00	29.929 
03:35	73.3	73.3	73.3	89	69.9	0	0	---	0.00	29.929 
03:40	73.2	73.2	73.2	89	69.8	0	0	---	0.00	29.929 
03:45	73.0	73.0	73.0	89	69.6	0	0	---	0.00	29.932 
03:50	73.0	73.0	73.0	90	69.9	0	0	---	0.00	29.932 
03:55	72.8	72.8	72.8	90	69.7	0	0	---	0.00	29.932 
04:00	72.7	72.7	72.7	90	69.6	0	0	---	0.00	29.934 
04:05	72.7	72.7	72.7	91	69.9	0	1	270	0.00	29.934 
04:10	72.7	72.7	72.7	91	69.9	0	0	---	0.00	29.934 
04:15	72.7	72.7	72.7	91	69.9	0	0	---	0.00	29.937 
04:20	72.5	72.5	72.5	91	69.7	0	0	---	0.00	29.937 
04:25	72.3	72.3	72.3	91	69.5	0	0	---	0.00	29.937 
04:30	72.1	72.1	72.1	91	69.3	0	0	---	0.00	29.942 
04:35	72.1	72.1	72.1	92	69.6	0	0	---	0.00	29.942 
04:40	72.0	72.0	72.0	92	69.5	0	0	---	0.00	29.942 
04:45	72.0	72.0	72.0	92	69.5	0	0	---	0.00	29.940 
04:50	72.0	72.0	72.0	92	69.5	0	0	---	0.00	29.940 
04:55	72.0	72.0	72.0	92	69.5	0	0	---	0.00	29.940 
05:00	72.1	72.1	72.1	92	69.6	0	0	---	0.00	29.945 
05:05	72.1	72.1	72.1	93	70.0	0	0	---	0.00	29.945 
05:10	72.1	72.1	72.1	93	70.0	0	0	---	0.00	29.945 
05:15	72.1	72.1	72.1	93	70.0	0	0	---	0.00	29.944 
05:20	72.1	72.1	72.1	93	70.0	0	0	---	0.00	29.944 
05:25	72.1	72.1	72.1	93	70.0	0	0	---	0.00	29.944 
05:30	72.0	72.0	72.0	93	69.9	0	0	---	0.00	29.948 
05:35	72.0	72.0	72.0	93	69.9	0	0	---	0.00	29.948 
05:40	72.0	72.0	72.0	93	69.9	0	0	---	0.00	29.948 
05:45	72.0	72.0	72.0	93	69.9	0	0	---	0.00	29.955 
05:50	71.8	71.8	71.8	93	69.7	0	0	---	0.00	29.955 
05:55	71.8	71.8	71.8	93	69.7	0	0	---	0.00	29.955 
06:00	71.6	71.6	71.6	93	69.5	0	0	---	0.00	29.961 
06:05	71.3	71.3	71.3	93	69.2	0	0	---	0.00	29.961 
06:10	71.1	71.1	71.1	93	69.0	0	0	---	0.00	29.961 
06:15	70.9	70.9	70.9	93	68.8	0	0	---	0.00	29.966 
06:20	70.8	70.8	70.8	93	68.7	0	0	---	0.00	29.966 
06:25	70.6	70.6	70.6	93	68.5	0	0	---	0.00	29.966 
06:30	70.3	70.3	70.3	93	68.2	0	0	---	0.00	29.975 
06:35	70.1	70.1	70.1	93	68.0	0	0	---	0.00	29.975 
06:40	69.9	69.9	69.9	93	67.8	0	0	---	0.00	29.975 
06:45	69.8	69.8	69.8	93	67.7	0	0	---	0.00	29.968 
06:50	69.6	69.6	69.6	93	67.5	0	0	---	0.00	29.968 
06:55	69.4	69.4	69.4	93	67.3	0	0	---	0.00	29.968 
07:00	69.4	69.4	69.4	93	67.3	0	0	---	0.00	29.973 
07:05	69.3	69.3	69.3	93	67.2	0	0	---	0.00	29.973 
07:10	69.3	69.3	69.3	93	67.2	0	0	---	0.00	29.973 
07:15	69.3	69.3	69.3	93	67.2	0	0	---	0.00	29.977 
07:20	69.4	69.4	69.4	94	67.6	0	0	---	0.00	29.977 
07:25	69.4	69.4	69.4	94	67.6	0	0	---	0.00	29.977 
07:30	69.8	69.8	69.8	94	68.0	0	0	---	0.00	29.979 
07:35	69.9	69.9	69.9	94	68.1	0	0	---	0.00	29.979 
07:40	70.1	70.1	70.1	93	68.0	0	0	---	0.00	29.979 
07:45	70.6	70.6	70.6	92	68.2	0	0	---	0.00	29.981 
07:50	70.9	70.9	70.9	90	67.8	0	0	---	0.00	29.981 
07:55	71.6	71.6	71.6	88	67.8	0	0	---	0.00	29.981 
08:00	72.1	72.1	72.1	86	67.7	0	0	---	0.00	29.987 
08:05	72.5	72.5	72.5	81	66.3	0	0	---	0.00	29.987 
08:10	72.8	72.8	72.8	77	65.2	0	0	---	0.00	29.987 
08:15	73.5	73.5	73.5	76	65.5	0	0	---	0.00	29.986 
08:20	74.0	74.0	74.0	73	64.8	0	0	---	0.00	29.986 
08:25	74.6	74.6	74.6	70	64.2	0	0	---	0.00	29.986 
08:30	75.1	75.1	76.8	70	64.6	0	0	---	0.00	29.988 
08:35	75.4	75.4	77.1	70	64.9	0	0	---	0.00	29.988 
08:40	76.0	76.0	77.7	69	65.1	0	0	---	0.00	29.988 
08:45	76.3	76.3	78.1	67	64.5	0	0	---	0.00	29.990 
08:50	76.3	76.3	78.2	64	63.2	0	0	---	0.00	29.990 
08:55	76.5	76.5	78.3	63	62.9	0	0	---	0.00	29.990 
09:00	76.7	76.7	78.5	64	63.6	0	0	---	0.00	29.991 
09:05	77.2	77.2	79.0	65	64.5	0	0	---	0.00	29.991 
09:10	77.7	77.7	79.4	62	63.6	0	0	---	0.00	29.991 
09:15	77.9	77.9	79.6	60	62.9	0	0	---	0.00	29.992 
09:20	78.1	78.1	79.8	61	63.5	0	0	---	0.00	29.992 
09:25	78.1	78.1	79.7	58	62.1	0	0	---	0.00	29.992 
09:30	78.3	78.3	79.9	58	62.3	0	0	---	0.00	29.992 
09:35	78.3	78.3	79.8	57	61.8	0	0	---	0.00	29.992 
09:40	78.3	78.3	79.9	58	62.3	0	0	---	0.00	29.992 
09:45	78.6	78.6	80.1	58	62.6	0	0	---	0.00	29.993 
09:50	79.4	79.4	80.8	56	62.3	0	0	---	0.00	29.993 
09:55	79.6	79.6	81.0	56	62.5	0	0	---	0.00	29.993 
10:00	79.6	79.6	80.8	54	61.5	0	2	270	0.00	29.993 
10:05	79.8	79.8	81.1	55	62.2	0	0	---	0.00	29.993 
10:10	79.9	79.9	81.1	54	61.7	0	0	---	0.00	29.993 
10:15	80.3	80.3	81.6	55	62.6	0	0	---	0.00	29.994 
10:20	80.3	80.3	81.2	51	60.5	0	1	270	0.00	29.994 
10:25	80.5	80.5	81.5	52	61.2	0	0	---	0.00	29.994 
10:30	80.7	80.7	81.4	50	60.3	0	0	---	0.00	29.992 
10:35	80.7	80.7	81.6	51	60.9	0	0	---	0.00	29.992 
10:40	81.1	81.1	81.7	49	60.1	0	0	---	0.00	29.992 
10:45	81.4	81.4	82.1	50	60.9	0	0	---	0.00	29.991 
10:50	81.2	81.2	81.6	47	59.0	0	1	338	0.00	29.991 
10:55	81.6	81.6	82.6	52	62.2	0	0	---	0.00	29.991 
11:00	82.2	82.2	83.0	50	61.7	0	0	---	0.00	29.998 
11:05	82.2	82.2	82.4	46	59.3	0	0	---	0.00	29.998 
11:10	82.2	82.2	82.5	47	59.9	0	1	338	0.00	29.998 
11:15	82.6	82.6	83.3	49	61.5	0	0	---	0.00	29.996 
11:20	82.6	82.6	82.8	46	59.7	0	0	---	0.00	29.996 
11:25	82.6	82.6	82.8	46	59.7	0	0	---	0.00	29.996 
11:30	82.8	82.8	82.7	44	58.6	0	0	---	0.00	29.996 
11:35	83.0	83.0	83.2	46	60.1	0	0	---	0.00	29.996 
11:40	83.2	83.2	83.0	43	58.3	0	3	270	0.00	29.996 
11:45	83.0	83.0	83.1	45	59.4	0	2	270	0.00	29.999 
11:50	83.4	83.4	84.0	48	61.6	0	0	---	0.00	29.999 
11:55	83.8	83.8	83.9	45	60.2	0	0	---	0.00	29.999 
12:00	84.0	84.0	84.0	44	59.7	0	0	---	0.00	29.998 
12:05	83.8	83.8	83.4	42	58.2	0	3	270	0.00	29.998 
12:10	84.1	84.1	83.7	42	58.5	0	0	---	0.00	29.998 
12:15	84.1	84.1	83.7	42	58.5	0	1	315	0.00	29.994 
12:20	84.5	84.5	84.1	42	58.9	0	0	---	0.00	29.994 
12:25	85.1	85.1	85.0	43	60.1	0	0	---	0.00	29.994 
12:30	85.1	85.1	85.0	43	60.1	0	1	315	0.00	29.991 
12:35	84.7	84.7	84.2	41	58.4	1	3	315	0.00	29.991 
12:40	84.5	84.5	83.8	40	57.5	1	3	315	0.00	29.991 
12:45	84.5	84.5	84.1	42	58.9	1	2	315	0.00	29.991 
12:50	84.7	84.7	84.7	44	60.3	1	3	315	0.00	29.991 
12:55	85.1	85.1	85.2	44	60.7	1	3	315	0.00	29.991 
13:00	85.3	85.3	84.8	41	58.9	1	9	270	0.00	29.987 
13:05	85.3	85.3	84.5	39	57.5	1	3	292	0.00	29.987 
13:10	85.3	85.3	84.8	41	58.9	2	4	270	0.00	29.987 
13:15	85.1	85.1	84.4	40	58.0	1	3	292	0.00	29.988 
13:20	85.1	85.1	84.6	41	58.7	1	3	292	0.00	29.988 
13:25	85.5	85.5	85.9	45	61.7	0	2	292	0.00	29.988 
13:30	85.7	85.7	85.5	42	59.9	1	3	315	0.00	29.988 
13:35	86.1	86.1	85.6	40	58.9	1	4	315	0.00	29.988 
13:40	85.9	85.9	85.5	41	59.4	1	2	315	0.00	29.988 
13:45	85.9	85.9	86.0	43	60.8	0	3	315	0.00	29.983 
13:50	85.9	85.9	85.5	41	59.4	1	3	338	0.00	29.983 
13:55	86.3	86.3	85.8	40	59.1	0	2	315	0.00	29.983 
14:00	86.3	86.3	86.0	41	59.8	1	5	315	0.00	29.982 
14:05	86.1	86.1	85.8	41	59.6	1	4	292	0.00	29.982 
14:10	86.1	86.1	85.8	41	59.6	1	3	292	0.00	29.982 
14:15	86.1	86.1	85.6	40	58.9	1	3	315	0.00	29.975 
14:20	86.7	86.7	86.7	42	60.8	1	3	292	0.00	29.975 
14:25	86.5	86.5	85.8	39	58.6	0	3	292	0.00	29.975 
14:30	86.5	86.5	86.0	40	59.3	1	3	292	0.00	29.972 
14:35	86.5	86.5	86.3	41	60.0	1	2	292	0.00	29.972 
14:40	87.2	87.2	88.5	46	63.9	0	3	270	0.00	29.972 
14:45	87.4	87.4	86.9	39	59.4	2	5	270	0.00	29.972 
14:50	87.0	87.0	86.2	38	58.3	1	3	270	0.00	29.972 
14:55	86.7	86.7	86.7	42	60.8	1	3	292	0.00	29.972 
15:00	87.0	87.0	87.1	42	61.1	0	2	315	0.00	29.972 
15:05	87.4	87.4	87.1	40	60.1	1	5	292	0.00	29.972 
15:10	87.2	87.2	86.6	39	59.2	1	3	292	0.00	29.972 
15:15	87.6	87.6	87.1	39	59.5	0	2	292	0.00	29.971 
15:20	88.0	88.0	87.6	39	59.9	1	3	292	0.00	29.971 
15:25	88.0	88.0	87.6	39	59.9	1	3	292	0.00	29.971 
15:30	88.2	88.2	88.2	40	60.8	1	3	292	0.00	29.962 
15:35	88.0	88.0	87.6	39	59.9	2	5	270	0.00	29.962 
15:40	87.6	87.6	87.1	39	59.5	2	4	292	0.00	29.962 
15:45	87.6	87.6	87.6	41	60.9	1	4	292	0.00	29.959 
15:50	87.6	87.6	87.1	39	59.5	1	4	292	0.00	29.959 
15:55	87.4	87.4	87.1	40	60.1	1	4	292	0.00	29.959 
16:00	87.2	87.2	86.6	39	59.2	1	4	292	0.00	29.957 
16:05	87.6	87.6	87.1	39	59.5	1	3	292	0.00	29.957 
16:10	87.4	87.4	86.7	38	58.6	1	4	315	0.00	29.957 
16:15	87.4	87.4	87.1	40	60.1	2	4	292	0.00	29.955 
16:20	87.8	87.8	87.4	39	59.7	0	2	292	0.00	29.955 
16:25	88.0	88.0	87.6	39	59.9	0	3	315	0.00	29.955 
16:30	88.0	88.0	87.4	38	59.2	1	4	315	0.00	29.953 
16:35	87.6	87.6	86.9	38	58.8	2	4	292	0.00	29.953 
16:40	87.2	87.2	86.9	40	59.9	1	3	338	0.00	29.953 
16:45	87.4	87.4	86.9	39	59.4	2	4	270	0.00	29.954 
16:50	87.2	87.2	86.6	39	59.2	1	3	315	0.00	29.954 
16:55	87.6	87.6	86.9	38	58.8	1	3	315	0.00	29.954 
17:00	87.8	87.8	87.4	39	59.7	2	5	292	0.00	29.949 
17:05	88.0	88.0	87.4	38	59.2	1	3	270	0.00	29.949 
17:10	88.0	88.0	87.6	39	59.9	1	3	270	0.00	29.949 
17:15	87.8	87.8	86.9	37	58.2	1	3	270	0.00	29.948 
17:20	87.8	87.8	87.1	38	59.0	0	1	270	0.00	29.948 
17:25	88.2	88.2	87.4	37	58.6	1	4	270	0.00	29.948 
17:30	87.6	87.6	86.9	38	58.8	1	3	270	0.00	29.944 
17:35	87.6	87.6	87.1	39	59.5	1	3	315	0.00	29.944 
17:40	88.0	88.0	87.4	38	59.2	2	4	270	0.00	29.944 
17:45	88.0	88.0	87.1	37	58.4	1	3	270	0.00	29.941 
17:50	88.2	88.2	87.9	39	60.1	0	2	270	0.00	29.941 
17:55	88.2	88.2	87.9	39	60.1	1	3	248	0.00	29.941 
18:00	87.8	87.8	87.4	39	59.7	1	3	248	0.00	29.940 
18:05	87.2	87.2	87.1	41	60.6	0	2	248	0.00	29.940 
18:10	87.2	87.2	86.9	40	59.9	0	3	248	0.00	29.940 
18:15	87.2	87.2	86.6	39	59.2	1	3	248	0.00	29.942 
18:20	86.7	86.7	86.0	39	58.7	1	3	315	0.00	29.942 
18:25	86.7	86.7	86.5	41	60.1	1	4	292	0.00	29.942 
18:30	86.5	86.5	86.3	41	60.0	1	3	292	0.00	29.939 
18:35	86.3	86.3	86.0	41	59.8	2	5	270	0.00	29.939 
18:40	86.3	86.3	86.0	41	59.8	0	2	292	0.00	29.939 
18:45	86.3	86.3	86.0	41	59.8	1	4	292	0.00	29.933 
18:50	86.1	86.1	86.0	42	60.3	0	1	292	0.00	29.933 
18:55	85.9	85.9	85.5	41	59.4	0	1	292	0.00	29.933 
19:00	85.7	85.7	85.3	41	59.3	0	1	292	0.00	29.929 
19:05	85.7	85.7	85.3	41	59.3	0	2	292	0.00	29.929 
19:10	85.5	85.5	85.1	41	59.1	0	2	292	0.00	29.929 
19:15	85.7	85.7	85.1	40	58.6	1	3	292	0.00	29.924 
19:20	85.7	85.7	85.3	41	59.3	0	2	292	0.00	29.924 
19:25	85.7	85.7	85.5	42	59.9	1	2	292	0.00	29.924 
19:30	85.7	85.7	85.7	43	60.6	0	2	292	0.00	29.922 
19:35	85.5	85.5	85.9	45	61.7	0	2	112	0.00	29.922 
19:40	85.3	85.3	85.2	43	60.2	0	3	112	0.00	29.922 
19:45	85.1	85.1	85.2	44	60.7	0	1	112	0.00	29.927 
19:50	85.1	85.1	85.4	45	61.3	0	2	112	0.00	29.927 
19:55	84.9	84.9	85.2	45	61.2	0	2	112	0.00	29.927 
20:00	84.7	84.7	85.0	45	61.0	0	2	112	0.00	29.926 
20:05	84.3	84.3	84.7	46	61.2	0	3	135	0.00	29.926 
20:10	84.0	84.0	84.3	46	61.0	0	2	180	0.00	29.926 
20:15	83.8	83.8	84.1	46	60.8	0	1	180	0.00	29.922 
20:20	83.6	83.6	84.1	47	61.2	0	2	180	0.00	29.922 
20:25	83.4	83.4	84.0	48	61.6	0	1	180	0.00	29.922 
20:30	83.2	83.2	83.8	48	61.4	0	1	180	0.00	29.922 
20:35	82.8	82.8	83.3	48	61.1	0	1	180	0.00	29.922 
20:40	82.4	82.4	83.0	49	61.3	0	1	180	0.00	29.922 
20:45	82.2	82.2	82.8	49	61.1	0	2	202	0.00	29.924 
20:50	82.0	82.0	82.8	50	61.5	0	2	202	0.00	29.924 
20:55	81.8	81.8	82.6	50	61.3	0	1	202	0.00	29.924 
21:00	81.4	81.4	82.3	51	61.5	0	1	202	0.00	29.924 
21:05	81.2	81.2	82.1	51	61.3	0	2	202	0.00	29.924 
21:10	81.1	81.1	82.1	52	61.8	0	1	202	0.00	29.924 
21:15	80.9	80.9	82.0	53	62.1	0	1	202	0.00	29.922 
21:20	80.7	80.7	81.8	53	62.0	0	0	---	0.00	29.922 
21:25	80.3	80.3	81.5	54	62.1	0	0	---	0.00	29.922 
21:30	79.9	79.9	81.1	54	61.7	0	1	202	0.00	29.923 
21:35	79.9	79.9	81.2	55	62.3	0	2	202	0.00	29.923 
21:40	79.8	79.8	81.2	56	62.7	0	1	202	0.00	29.923 
21:45	79.6	79.6	81.0	56	62.5	0	1	202	0.00	29.927 
21:50	79.4	79.4	80.9	57	62.8	0	0	---	0.00	29.927 
21:55	79.2	79.2	80.7	57	62.6	0	1	202	0.00	29.927 
22:00	79.0	79.0	80.5	58	62.9	0	1	202	0.00	29.937 
22:05	78.8	78.8	80.3	58	62.8	0	0	---	0.00	29.937 
22:10	78.5	78.5	80.0	58	62.5	0	0	---	0.00	29.937 
22:15	78.3	78.3	80.0	60	63.2	0	0	---	0.00	29.939 
22:20	78.1	78.1	79.8	60	63.1	0	1	202	0.00	29.939 
22:25	78.1	78.1	79.8	60	63.1	0	1	202	0.00	29.939 
22:30	78.1	78.1	79.8	60	63.1	0	1	202	0.00	29.941 
22:35	77.9	77.9	79.6	60	62.9	0	1	202	0.00	29.941 
22:40	77.7	77.7	79.4	61	63.2	0	1	202	0.00	29.941 
22:45	77.7	77.7	79.4	61	63.2	0	1	202	0.00	29.944 
22:50	77.6	77.6	79.3	61	63.1	0	0	---	0.00	29.944 
22:55	77.4	77.4	79.2	62	63.3	0	0	---	0.00	29.944 
23:00	77.0	77.0	78.8	62	63.0	0	0	---	0.00	29.952 
23:05	76.8	76.8	78.6	62	62.8	0	0	---	0.00	29.952 
23:10	76.7	76.7	78.5	62	62.7	0	1	202	0.00	29.952 
23:15	76.7	76.7	78.5	62	62.7	0	1	202	0.00	29.955 
23:20	76.7	76.7	78.5	62	62.7	0	1	202	0.00	29.955 
23:25	76.5	76.5	78.3	63	62.9	0	1	202	0.00	29.955 
23:30	76.5	76.5	78.3	63	62.9	0	0	---	0.00	29.953 
23:35	76.3	76.3	78.2	63	62.8	0	0	---	0.00	29.953 
23:40	76.1	76.1	78.0	63	62.6	0	0	---	0.00	29.953 
23:45	76.0	76.0	77.9	64	62.9	0	0	---	0.00	29.955 
23:50	75.6	75.6	77.5	65	63.0	0	0	---	0.00	29.955 
23:55	75.4	75.4	77.4	65	62.8	0	0	---	0.00	29.955 

CoCoRaHS
IN-AL-39
A2 Web Hosting
Creative Commons License
GoDaddy
search engine by freefind advanced

loaded 2018-11-18 11:17:18 • last modified 2010-11-18 10:43:29
Privacy PolicyDisclaimer
• wx.awcolley.com is powered by PmWiki v.2002016 •
• all content (unless otherwise noted) © 2018 A W Colley